Terminal Aerodrome Forecast
Issued by NWS Greer, SC

Home | Current Version | Previous Version | Text Only | Print | Product List | Glossary On
Versions: 1 2 3 4 5 6 7 8 9 10 11 12
169
FTUS42 KGSP 202339
TAFGSP
TAF
KGSP 202339Z 2100/2124 05004KT P6SM FEW070 FEW250
     FM211000 VRB02KT 6SM BR FEW250
     FM211300 05003KT P6SM FEW250
     FM211800 08007KT P6SM FEW050
     FM212000 15006KT P6SM SCT050=

USA.gov is the U.S. government's official web portal to all federal, state and local government web resources and services.